Time;durP1;ratioP1;P1;durP2;ratioP2;P2;SDS_P1;SDS_P2;PMS_P1;PMS_P2;Temp;Humidity;BMP_temperature;BMP_pressure;BME280_temperature;BME280_humidity;BME280_pressure;Samples;Min_cycle;Max_cycle;Signal;HPM_P1;HPM_P2
2021/01/04 00:00:10;;;;;;;37.53;16.23;;;;;;;0.00;84.78;96117.53;5012255;28;21712;-65
2021/01/04 00:03:13;;;;;;;41.05;18.35;;;;;;;-0.07;84.80;96117.97;5006339;28;20140;-65
2021/01/04 00:05:50;;;;;;;43.83;17.23;;;;;;;-0.39;85.14;96127.19;5012772;28;20046;-66
2021/01/04 00:08:33;;;;;;;45.33;17.98;;;;;;;-0.53;85.27;96121.09;5005662;28;20045;-65
2021/01/04 00:11:36;;;;;;;41.85;16.45;;;;;;;-0.44;85.58;96119.25;5011765;28;20136;-66
2021/01/04 00:14:04;;;;;;;44.70;16.75;;;;;;;-0.42;85.44;96117.03;5010836;28;20046;-65
2021/01/04 00:17:03;;;;;;;43.13;16.98;;;;;;;-0.48;85.91;96116.38;5018946;28;20056;-66
2021/01/04 00:19:41;;;;;;;42.22;17.33;;;;;;;-0.49;85.76;96116.69;5027052;28;20050;-65
2021/01/04 00:22:12;;;;;;;45.15;16.98;;;;;;;-0.39;85.37;96116.44;5012319;28;20157;-64
2021/01/04 00:24:37;;;;;;;40.10;17.38;;;;;;;-0.22;85.31;96110.31;5008677;28;20045;-65
2021/01/04 00:27:10;;;;;;;40.47;16.52;;;;;;;-0.03;84.84;96110.84;5009342;28;20037;-65
2021/01/04 00:29:36;;;;;;;36.75;15.20;;;;;;;-0.04;84.58;96109.28;5021205;28;20397;-65
2021/01/04 00:32:11;;;;;;;40.92;16.90;;;;;;;-0.13;84.25;96111.13;5016309;28;20037;-66
2021/01/04 00:34:48;;;;;;;38.10;16.00;;;;;;;-0.10;84.67;96115.91;5004733;28;20132;-66
2021/01/04 00:37:51;;;;;;;37.13;16.13;;;;;;;-0.11;84.73;96116.22;4997003;28;20045;-66
2021/01/04 00:40:34;;;;;;;44.05;17.25;;;;;;;-0.33;84.62;96119.78;5009343;28;20184;-66
2021/01/04 00:43:01;;;;;;;43.38;16.38;;;;;;;-0.39;84.97;96117.22;5008999;28;20518;-66
2021/01/04 00:45:30;;;;;;;39.05;15.98;;;;;;;-0.38;84.85;96118.00;5022512;28;20056;-64
2021/01/04 00:48:17;;;;;;;45.83;15.93;;;;;;;-0.36;84.83;96120.38;5019825;28;20108;-65
2021/01/04 00:51:04;;;;;;;47.42;18.38;;;;;;;-0.54;85.20;96109.56;5011838;28;20625;-65
2021/01/04 00:53:42;;;;;;;44.40;17.88;;;;;;;-0.50;85.31;96115.13;4999876;28;20128;-66
2021/01/04 00:56:31;;;;;;;41.55;17.02;;;;;;;-0.46;85.39;96106.09;5016856;28;20048;-65
2021/01/04 00:59:06;;;;;;;47.17;18.63;;;;;;;-0.49;85.13;96114.78;5021454;28;20045;-65
2021/01/04 01:02:03;;;;;;;43.80;17.17;;;;;;;-0.57;85.20;96115.56;5019725;28;20037;-65
2021/01/04 01:05:01;;;;;;;45.28;18.02;;;;;;;-0.58;85.47;96116.66;5011827;28;20081;-65
2021/01/04 01:07:52;;;;;;;47.28;17.15;;;;;;;-0.54;84.64;96112.25;5001656;28;20048;-65
2021/01/04 01:10:18;;;;;;;41.20;16.55;;;;;;;-0.56;84.92;96113.66;5015007;28;20090;-65
2021/01/04 01:13:01;;;;;;;43.05;18.52;;;;;;;-0.59;84.75;96112.38;5018193;28;20041;-65
2021/01/04 01:15:32;;;;;;;42.40;16.83;;;;;;;-0.59;85.23;96115.06;5008029;28;20053;-65
2021/01/04 01:18:23;;;;;;;46.92;17.15;;;;;;;-0.57;84.84;96123.63;5012685;28;20056;-65
2021/01/04 01:20:54;;;;;;;43.92;18.30;;;;;;;-0.59;84.52;96120.44;5021027;28;20048;-65
2021/01/04 01:23:26;;;;;;;45.78;17.00;;;;;;;-0.62;85.09;96121.84;5014485;28;20049;-64
2021/01/04 01:26:16;;;;;;;45.72;18.05;;;;;;;-0.61;84.68;96128.03;5020071;28;20136;-65
2021/01/04 01:29:03;;;;;;;48.22;17.83;;;;;;;-0.61;84.83;96126.13;5000638;28;20643;-65
2021/01/04 01:31:44;;;;;;;39.33;16.58;;;;;;;-0.59;84.30;96123.94;5011626;28;20076;-66
2021/01/04 01:34:55;;;;;;;41.83;15.82;;;;;;;-0.60;84.39;96125.00;5012149;28;20502;-64
2021/01/04 01:37:56;;;;;;;44.28;18.13;;;;;;;-0.61;84.74;96131.50;4988006;28;20642;-65
2021/01/04 01:40:42;;;;;;;45.40;18.33;;;;;;;-0.63;84.27;96125.66;5015661;28;20057;-64
2021/01/04 01:43:17;;;;;;;39.00;16.75;;;;;;;-0.61;84.06;96134.19;4992139;28;20049;-64
2021/01/04 01:45:56;;;;;;;42.05;17.20;;;;;;;-0.61;84.04;96131.50;5015650;28;20053;-64
2021/01/04 01:48:37;;;;;;;45.17;16.75;;;;;;;-0.62;83.69;96121.84;5012759;28;20074;-64
2021/01/04 01:51:12;;;;;;;42.67;16.50;;;;;;;-0.60;83.62;96130.41;5001275;28;20093;-65
2021/01/04 01:54:09;;;;;;;35.35;15.73;;;;;;;-0.59;83.51;96125.84;4998507;28;20057;-64
2021/01/04 01:56:43;;;;;;;39.10;15.85;;;;;;;-0.56;83.14;96121.72;5012807;28;20049;-64
2021/01/04 01:59:09;;;;;;;42.72;16.45;;;;;;;-0.57;82.83;96128.22;5005378;28;20119;-65
2021/01/04 02:02:02;;;;;;;36.22;14.80;;;;;;;-0.57;82.76;96130.91;5008930;28;20472;-64
2021/01/04 02:04:54;;;;;;;42.42;17.00;;;;;;;-0.56;82.65;96129.78;4985569;28;20783;-65
2021/01/04 02:07:44;;;;;;;33.22;15.93;;;;;;;-0.55;82.06;96117.94;5010238;28;20513;-65
2021/01/04 02:10:21;;;;;;;41.85;15.80;;;;;;;-0.55;82.26;96124.09;5005561;28;20124;-65
2021/01/04 02:12:49;;;;;;;36.13;14.32;;;;;;;-0.57;82.33;96114.78;5011698;28;20037;-65
2021/01/04 02:15:20;;;;;;;33.15;15.50;;;;;;;-0.57;82.40;96125.53;5000358;28;20038;-65
2021/01/04 02:17:45;;;;;;;39.63;15.50;;;;;;;-0.58;82.08;96122.03;5007276;28;21064;-65
2021/01/04 02:20:16;;;;;;;32.40;14.00;;;;;;;-0.59;82.13;96123.13;5004101;28;20049;-65
2021/01/04 02:23:06;;;;;;;35.75;14.40;;;;;;;-0.57;81.96;96112.06;5009604;28;20402;-65
2021/01/04 02:25:38;;;;;;;40.28;15.13;;;;;;;-0.57;81.99;96115.56;5001631;28;20195;-65
2021/01/04 02:28:10;;;;;;;37.03;15.35;;;;;;;-0.55;81.72;96113.34;5009441;28;20137;-65
2021/01/04 02:30:36;;;;;;;32.40;13.77;;;;;;;-0.58;81.18;96122.03;5016109;28;20136;-65
2021/01/04 02:33:04;;;;;;;37.38;15.02;;;;;;;-0.58;81.70;96116.66;5024881;28;20045;-65
2021/01/04 02:35:31;;;;;;;32.78;13.48;;;;;;;-0.57;80.56;96117.47;5008954;28;20037;-65
2021/01/04 02:37:57;;;;;;;35.75;14.13;;;;;;;-0.58;81.27;96124.72;5011372;28;20046;-65
2021/01/04 02:40:22;;;;;;;33.50;15.75;;;;;;;-0.56;81.12;96127.09;4997397;28;20689;-64
2021/01/04 02:42:49;;;;;;;32.28;14.07;;;;;;;-0.60;81.49;96116.16;5006685;28;20041;-64
2021/01/04 02:45:15;;;;;;;34.85;14.25;;;;;;;-0.61;81.68;96114.59;5001560;28;20042;-65
2021/01/04 02:47:48;;;;;;;36.25;14.90;;;;;;;-0.64;82.12;96115.97;5010224;28;20260;-65
2021/01/04 02:50:28;;;;;;;35.38;15.57;;;;;;;-0.66;82.23;96115.50;5005709;28;20550;-67
2021/01/04 02:53:34;;;;;;;34.75;14.23;;;;;;;-0.66;82.31;96114.72;4989199;28;20057;-64
2021/01/04 02:56:11;;;;;;;39.20;14.77;;;;;;;-0.68;82.33;96114.22;5008101;28;20455;-64
2021/01/04 02:58:53;;;;;;;31.33;14.18;;;;;;;-0.67;82.56;96115.81;5017631;28;20663;-64
2021/01/04 03:01:24;;;;;;;32.35;14.25;;;;;;;-0.66;82.33;96112.03;5004583;28;20091;-66
2021/01/04 03:03:50;;;;;;;39.63;14.43;;;;;;;-0.67;82.48;96113.13;5005675;28;20100;-64
2021/01/04 03:06:22;;;;;;;36.55;16.35;;;;;;;-0.67;82.35;96121.19;4994308;28;20037;-64
2021/01/04 03:08:47;;;;;;;39.67;15.98;;;;;;;-0.64;81.65;96118.69;5007877;28;20050;-64
2021/01/04 03:11:17;;;;;;;30.40;13.45;;;;;;;-0.66;82.24;96122.78;5004506;28;20041;-64
2021/01/04 03:13:55;;;;;;;35.50;14.93;;;;;;;-0.66;81.86;96123.56;5018539;28;20079;-64
2021/01/04 03:16:50;;;;;;;33.97;15.52;;;;;;;-0.66;81.85;96118.19;5013262;28;20060;-65
2021/01/04 03:19:21;;;;;;;36.17;15.15;;;;;;;-0.66;81.96;96122.78;5013923;28;20041;-64
2021/01/04 03:22:03;;;;;;;33.13;13.80;;;;;;;-0.65;81.60;96121.66;5000664;28;20049;-65
2021/01/04 03:24:29;;;;;;;33.28;14.38;;;;;;;-0.61;81.53;96117.28;5033214;28;20054;-65
2021/01/04 03:27:01;;;;;;;32.75;13.95;;;;;;;-0.63;81.90;96122.97;4992603;28;20103;-63
2021/01/04 03:29:27;;;;;;;32.50;13.35;;;;;;;-0.62;81.60;96124.53;5011499;28;20159;-65
2021/01/04 03:31:53;;;;;;;37.90;14.38;;;;;;;-0.61;81.08;96123.44;4992140;28;20136;-65
2021/01/04 03:34:18;;;;;;;35.58;14.57;;;;;;;-0.61;81.47;96123.44;4999800;28;20127;-64
2021/01/04 03:36:44;;;;;;;35.88;14.82;;;;;;;-0.62;81.51;96127.22;5009197;28;20041;-63
2021/01/04 03:39:09;;;;;;;41.47;14.90;;;;;;;-0.64;81.81;96124.06;4985445;28;20071;-64
2021/01/04 03:41:35;;;;;;;34.85;14.93;;;;;;;-0.59;81.31;96129.31;5012608;28;20037;-65
2021/01/04 03:44:00;;;;;;;29.13;14.30;;;;;;;-0.61;81.79;96133.41;5006571;28;20095;-66
2021/01/04 03:46:26;;;;;;;32.03;13.68;;;;;;;-0.65;82.02;96127.88;4993427;28;20731;-65
2021/01/04 03:48:51;;;;;;;34.67;14.02;;;;;;;-0.67;82.22;96131.94;5008546;28;20049;-64
2021/01/04 03:51:17;;;;;;;34.47;15.07;;;;;;;-0.67;82.16;96129.25;5020656;28;20055;-63
2021/01/04 03:53:43;;;;;;;30.83;13.52;;;;;;;-0.68;82.31;96125.78;5002079;28;20038;-64
2021/01/04 03:56:20;;;;;;;32.70;15.48;;;;;;;-0.70;82.54;96132.56;4999499;28;20442;-65
2021/01/04 03:58:46;;;;;;;36.15;14.77;;;;;;;-0.71;82.89;96130.97;5010595;28;20041;-65
2021/01/04 04:01:11;;;;;;;29.48;13.27;;;;;;;-0.70;82.25;96124.47;5007268;28;20371;-65
2021/01/04 04:03:37;;;;;;;39.63;15.80;;;;;;;-0.71;82.40;96123.69;4993893;28;20103;-65
2021/01/04 04:06:03;;;;;;;33.42;14.23;;;;;;;-0.71;82.53;96126.38;5011905;28;20125;-63
2021/01/04 04:08:29;;;;;;;32.40;14.15;;;;;;;-0.70;81.76;96129.88;5012733;28;20042;-64
2021/01/04 04:10:55;;;;;;;32.10;14.00;;;;;;;-0.71;82.25;96126.38;5011756;28;20203;-65
2021/01/04 04:13:21;;;;;;;33.88;14.32;;;;;;;-0.72;82.71;96137.44;5008150;28;21516;-66
2021/01/04 04:15:47;;;;;;;31.00;14.30;;;;;;;-0.72;82.51;96137.44;5012506;28;20060;-66
2021/01/04 04:18:12;;;;;;;35.10;14.27;;;;;;;-0.75;82.52;96136.19;5010595;28;20042;-65
2021/01/04 04:20:38;;;;;;;34.05;14.45;;;;;;;-0.78;82.87;96136.78;5011200;28;20046;-64
2021/01/04 04:23:03;;;;;;;33.85;14.68;;;;;;;-0.81;83.22;96135.50;5005497;28;20053;-65
2021/01/04 04:25:30;;;;;;;33.30;14.15;;;;;;;-0.79;83.22;96132.53;5007551;28;20046;-65
2021/01/04 04:27:56;;;;;;;38.92;15.85;;;;;;;-0.82;83.34;96133.13;5012349;28;20095;-66
2021/01/04 04:30:23;;;;;;;32.65;14.52;;;;;;;-0.84;83.61;96136.13;5009847;28;20064;-64
2021/01/04 04:32:53;;;;;;;34.85;15.35;;;;;;;-0.83;83.71;96131.53;5017426;28;20042;-65
2021/01/04 04:35:19;;;;;;;36.85;13.90;;;;;;;-0.86;83.75;96132.94;5011194;28;20045;-65
2021/01/04 04:37:44;;;;;;;31.77;14.68;;;;;;;-0.87;83.56;96128.66;5017033;28;20108;-66
2021/01/04 04:40:18;;;;;;;31.95;14.10;;;;;;;-0.87;83.34;96128.66;5012677;28;20065;-66
2021/01/04 04:42:45;;;;;;;32.42;13.80;;;;;;;-0.87;83.27;96131.34;5015505;28;20045;-66
2021/01/04 04:45:17;;;;;;;32.65;14.23;;;;;;;-0.87;82.81;96141.31;5015171;28;20046;-65
2021/01/04 04:48:06;;;;;;;36.53;13.65;;;;;;;-0.86;83.12;96134.84;5019111;28;20059;-65
2021/01/04 04:50:53;;;;;;;28.45;12.85;;;;;;;-0.84;82.65;96138.81;5017321;28;20038;-66
2021/01/04 04:53:36;;;;;;;32.85;13.32;;;;;;;-0.86;82.95;96138.31;5015536;28;20069;-65
2021/01/04 04:56:29;;;;;;;28.98;12.70;;;;;;;-0.88;83.07;96137.84;5020445;28;20081;-65
2021/01/04 04:59:01;;;;;;;26.95;12.23;;;;;;;-0.86;82.03;96129.47;5020282;28;20181;-65
2021/01/04 05:02:11;;;;;;;32.28;14.40;;;;;;;-0.81;81.99;96129.31;5016409;28;20041;-65
2021/01/04 05:04:47;;;;;;;28.90;12.00;;;;;;;-0.81;81.41;96124.75;4971293;28;20041;-65
2021/01/04 05:07:44;;;;;;;28.08;12.60;;;;;;;-0.83;81.24;96128.84;5017922;28;20076;-65
2021/01/04 05:10:29;;;;;;;25.25;11.55;;;;;;;-0.83;81.21;96129.66;5017695;28;20055;-65
2021/01/04 05:13:02;;;;;;;33.60;12.45;;;;;;;-0.81;81.14;96140.06;5022389;28;20052;-65
2021/01/04 05:15:40;;;;;;;25.27;11.05;;;;;;;-0.84;81.12;96138.03;5016183;28;20037;-65
2021/01/04 05:18:32;;;;;;;24.83;11.20;;;;;;;-0.85;80.97;96152.56;5016817;28;20045;-65
2021/01/04 05:21:22;;;;;;;28.05;12.27;;;;;;;-0.87;81.60;96144.00;4973032;28;20069;-65
2021/01/04 05:23:59;;;;;;;;;;;;;;;-0.88;81.21;96153.97;5002626;28;20044;-65
2021/01/04 05:26:49;;;;;;;26.95;11.50;;;;;;;-0.89;81.26;96147.00;4996734;28;19924;-65
2021/01/04 05:29:36;;;;;;;28.92;12.80;;;;;;;-0.91;81.07;96143.81;4997118;28;20123;-65
2021/01/04 05:32:27;;;;;;;27.77;11.60;;;;;;;-0.89;81.10;96144.31;4993210;28;20088;-66
2021/01/04 05:34:57;;;;;;;25.63;10.77;;;;;;;-0.90;80.84;96147.28;4991121;28;20459;-65
2021/01/04 05:37:47;;;;;;;25.30;11.10;;;;;;;-0.84;81.24;96138.81;4993051;28;20796;-65
2021/01/04 05:40:29;;;;;;;25.63;11.02;;;;;;;-0.81;80.91;96145.44;4995645;28;20498;-66
2021/01/04 05:43:25;;;;;;;27.05;11.45;;;;;;;-0.90;81.24;96140.03;5002028;28;20104;-65
2021/01/04 05:46:13;;;;;;;30.60;12.65;;;;;;;-0.92;80.25;96146.81;5000729;28;20046;-65
2021/01/04 05:48:49;;;;;;;26.65;11.40;;;;;;;-0.94;80.83;96141.72;4981599;28;20108;-66
2021/01/04 05:51:29;;;;;;;26.13;12.10;;;;;;;-0.97;80.75;96153.13;4996404;28;20133;-66
2021/01/04 05:53:55;;;;;;;25.00;11.27;;;;;;;-0.99;81.20;96144.53;5008269;28;20407;-66
2021/01/04 05:56:27;;;;;;;26.65;11.15;;;;;;;-0.99;81.20;96141.84;4996703;28;20046;-66
2021/01/04 05:59:13;;;;;;;27.15;11.40;;;;;;;-1.02;81.71;96145.97;5000842;28;20045;-66
2021/01/04 06:01:41;;;;;;;28.67;11.68;;;;;;;-1.05;81.63;96135.03;5005923;28;20038;-66
2021/01/04 06:04:28;;;;;;;25.08;11.57;;;;;;;-1.06;81.69;96142.31;4997909;28;20053;-66
2021/01/04 06:06:57;;;;;;;28.70;12.02;;;;;;;-1.08;81.93;96139.13;5007905;28;20559;-67
2021/01/04 06:09:24;;;;;;;26.65;11.68;;;;;;;-1.11;82.12;96139.72;5000962;28;20041;-66
2021/01/04 06:11:55;;;;;;;23.63;11.43;;;;;;;-1.05;81.72;96145.78;5002623;28;20044;-66
2021/01/04 06:14:26;;;;;;;29.67;12.82;;;;;;;-1.06;81.88;96134.25;4995711;28;20054;-66
2021/01/04 06:17:27;;;;;;;28.63;12.10;;;;;;;-1.04;81.37;96134.72;5000576;28;20099;-66
2021/01/04 06:19:57;;;;;;;26.92;11.20;;;;;;;-1.09;81.88;96142.91;5013383;28;20453;-67
2021/01/04 06:22:31;;;;;;;25.20;11.98;;;;;;;-1.15;81.74;96141.44;5011338;28;20037;-67
2021/01/04 06:25:05;;;;;;;25.33;11.52;;;;;;;-1.15;81.69;96141.44;4986731;28;20053;-67
2021/01/04 06:27:33;;;;;;;25.80;12.43;;;;;;;-1.21;82.36;96140.75;4986662;28;20393;-67
2021/01/04 06:30:20;;;;;;;25.75;11.27;;;;;;;-1.20;82.37;96146.94;5017736;28;20041;-66
2021/01/04 06:32:48;;;;;;;24.42;11.27;;;;;;;-1.26;82.19;96148.94;5018816;28;20037;-67
2021/01/04 06:35:16;;;;;;;30.00;13.05;;;;;;;-1.25;82.25;96147.03;5015870;28;20378;-66
2021/01/04 06:37:42;;;;;;;32.33;13.02;;;;;;;-1.25;82.44;96149.72;5019637;28;20049;-66
2021/01/04 06:40:29;;;;;;;26.33;11.73;;;;;;;-1.24;81.93;96151.31;5015167;28;20115;-66
2021/01/04 06:42:54;;;;;;;27.60;13.23;;;;;;;-1.24;82.09;96138.69;5020126;28;20034;-66
2021/01/04 06:45:34;;;;;;;30.35;12.15;;;;;;;-1.21;81.36;96142.66;5015154;28;20064;-67
2021/01/04 06:48:02;;;;;;;25.65;11.68;;;;;;;-1.14;82.90;96140.31;5020338;28;20087;-66
2021/01/04 06:50:55;;;;;;;26.67;11.48;;;;;;;-1.12;82.34;96143.50;5016358;28;20049;-67
2021/01/04 06:53:41;;;;;;;24.60;11.65;;;;;;;-1.16;81.79;96137.16;4991010;28;20045;-65
2021/01/04 06:56:15;;;;;;;23.67;11.88;;;;;;;-1.15;81.63;96138.75;5018913;28;20052;-66
2021/01/04 06:58:54;;;;;;;35.45;15.77;;;;;;;-1.16;81.32;96146.00;5019968;28;20045;-64
2021/01/04 07:01:38;;;;;;;26.70;12.68;;;;;;;-1.21;81.58;96145.34;5012903;28;20041;-66
2021/01/04 07:04:12;;;;;;;22.60;11.73;;;;;;;-1.23;81.13;96144.84;5016144;28;20049;-65
2021/01/04 07:06:52;;;;;;;24.60;11.73;;;;;;;-1.18;79.71;96145.53;5019930;28;20044;-66
2021/01/04 07:09:43;;;;;;;26.55;11.65;;;;;;;-1.18;80.08;96152.78;5013670;28;20045;-66
2021/01/04 07:12:22;;;;;;;24.50;13.00;;;;;;;-1.14;79.66;96148.38;5013130;28;20037;-66
2021/01/04 07:15:22;;;;;;;26.25;11.35;;;;;;;-1.12;79.57;96154.25;5016886;28;20056;-66
2021/01/04 07:18:16;;;;;;;25.83;12.35;;;;;;;-1.02;79.21;96150.56;5023338;28;20053;-67
2021/01/04 07:20:56;;;;;;;30.25;17.73;;;;;;;-0.95;77.90;96153.59;5037324;28;20116;-66
2021/01/04 07:23:30;;;;;;;26.25;12.07;;;;;;;-1.03;78.14;96144.34;5013992;28;22580;-66
2021/01/04 07:26:03;;;;;;;24.92;12.05;;;;;;;-1.01;77.03;96147.56;5019882;28;20098;-66
2021/01/04 07:28:29;;;;;;;27.10;12.05;;;;;;;-1.01;77.35;96144.06;5016853;28;20037;-66
2021/01/04 07:31:02;;;;;;;34.10;13.68;;;;;;;-0.98;76.53;96140.78;5019483;28;20045;-66
2021/01/04 07:33:45;;;;;;;33.28;14.88;;;;;;;-0.97;76.29;96142.38;5012619;28;20099;-65
2021/01/04 07:36:23;;;;;;;36.28;16.98;;;;;;;-0.96;76.25;96146.63;5011857;28;20048;-66
2021/01/04 07:39:06;;;;;;;33.63;15.63;;;;;;;-0.91;76.29;96143.03;5018498;28;20401;-66
2021/01/04 07:41:46;;;;;;;34.20;17.55;;;;;;;-0.83;77.14;96137.72;5017187;28;20390;-66
2021/01/04 07:44:20;;;;;;;26.55;14.27;;;;;;;-0.82;76.64;96143.88;5017796;28;20049;-66
2021/01/04 07:47:04;;;;;;;29.65;16.58;;;;;;;-0.90;76.82;96148.09;5020822;28;20132;-66
2021/01/04 07:49:43;;;;;;;25.25;14.35;;;;;;;-0.94;76.71;96140.94;5019871;28;20117;-66
2021/01/04 07:52:27;;;;;;;26.60;14.53;;;;;;;-0.88;75.92;96134.34;5018120;28;20266;-66
2021/01/04 07:55:18;;;;;;;23.15;12.25;;;;;;;-0.89;76.34;96128.16;5020588;28;20308;-66
2021/01/04 07:57:58;;;;;;;24.83;11.52;;;;;;;-0.81;75.89;96135.50;4999313;28;20052;-66
2021/01/04 08:00:42;;;;;;;24.52;12.35;;;;;;;-0.89;75.53;96148.91;5011259;28;20888;-65
2021/01/04 08:03:39;;;;;;;28.40;14.15;;;;;;;-0.88;75.55;96145.91;5013325;28;20095;-66
2021/01/04 08:06:46;;;;;;;27.50;13.02;;;;;;;-0.87;75.59;96146.69;5014977;28;20048;-66
2021/01/04 08:09:25;;;;;;;30.02;16.98;;;;;;;-0.88;76.11;96153.97;5013489;28;20045;-66
2021/01/04 08:12:13;;;;;;;27.47;12.73;;;;;;;-0.86;76.36;96157.16;5018538;28;20033;-67
2021/01/04 08:14:57;;;;;;;27.23;11.63;;;;;;;-0.74;75.30;96155.78;5018296;28;20302;-66
2021/01/04 08:17:45;;;;;;;25.60;12.40;;;;;;;-0.79;76.08;96152.13;5007984;28;20196;-66
2021/01/04 08:20:12;;;;;;;27.60;12.48;;;;;;;-0.78;75.23;96152.91;5012184;28;20053;-64
2021/01/04 08:22:49;;;;;;;30.85;15.13;;;;;;;-0.77;74.74;96165.28;5017992;28;20045;-64
2021/01/04 08:25:44;;;;;;;28.17;12.55;;;;;;;-0.76;75.39;96158.78;5004975;28;20042;-67
2021/01/04 08:28:20;;;;;;;31.83;12.30;;;;;;;-0.74;75.99;96155.78;5008573;28;20518;-65
2021/01/04 08:31:02;;;;;;;27.30;12.45;;;;;;;-0.73;75.19;96160.88;5022794;28;20136;-65
2021/01/04 08:33:44;;;;;;;26.25;12.50;;;;;;;-0.56;75.79;96154.00;5018568;28;20064;-65
2021/01/04 08:36:40;;;;;;;25.50;11.43;;;;;;;-0.59;75.28;96158.91;5017573;28;20390;-65
2021/01/04 08:39:27;;;;;;;28.48;12.60;;;;;;;-0.70;75.62;96154.06;5014854;28;20684;-66
2021/01/04 08:42:01;;;;;;;28.08;12.40;;;;;;;-0.75;75.42;96160.38;4992574;28;20515;-66
2021/01/04 08:44:26;;;;;;;30.92;13.85;;;;;;;-0.82;75.63;96152.72;4997690;28;20450;-66
2021/01/04 08:46:52;;;;;;;29.35;13.32;;;;;;;-0.81;75.58;96148.16;5012197;28;20041;-66
2021/01/04 08:49:25;;;;;;;27.70;12.73;;;;;;;-0.86;75.48;96156.34;5003959;28;20033;-67
2021/01/04 08:51:53;;;;;;;32.35;13.95;;;;;;;-0.95;74.74;96150.91;5002421;28;20062;-65
2021/01/04 08:54:29;;;;;;;29.33;13.70;;;;;;;-0.96;75.96;96157.38;5005215;28;20041;-66
2021/01/04 08:57:11;;;;;;;30.15;13.40;;;;;;;-0.89;75.54;96156.97;5009229;28;20041;-65
2021/01/04 08:59:37;;;;;;;27.88;12.43;;;;;;;-0.97;75.30;96169.25;4992039;28;20105;-66
2021/01/04 09:02:15;;;;;;;26.55;12.68;;;;;;;-1.00;75.60;96161.78;5009180;28;20080;-66
2021/01/04 09:04:41;;;;;;;33.25;15.07;;;;;;;-1.01;75.66;96161.00;5009444;28;20046;-65
2021/01/04 09:07:21;;;;;;;27.17;11.90;;;;;;;-0.92;75.81;96160.25;5004824;28;20045;-66
2021/01/04 09:09:59;;;;;;;29.25;12.15;;;;;;;-0.90;75.59;96155.38;5010320;28;20137;-66
2021/01/04 09:12:39;;;;;;;28.17;12.57;;;;;;;-0.93;75.23;96156.78;4997359;28;20085;-66
2021/01/04 09:15:13;;;;;;;28.90;12.00;;;;;;;-0.83;75.40;96158.41;5004163;28;20045;-66
2021/01/04 09:17:44;;;;;;;24.23;11.25;;;;;;;-0.83;74.41;96153.03;4993211;28;20034;-67
2021/01/04 09:20:19;;;;;;;30.42;12.25;;;;;;;-0.90;74.21;96156.19;4987569;28;20042;-67
2021/01/04 09:22:49;;;;;;;28.65;13.07;;;;;;;-0.90;74.89;96158.88;4989156;28;20144;-67
2021/01/04 09:25:23;;;;;;;29.70;13.07;;;;;;;-0.92;75.29;96161.03;4997926;28;20065;-67
2021/01/04 09:27:51;;;;;;;29.65;13.20;;;;;;;-0.88;75.53;96153.16;5002396;28;20034;-67
2021/01/04 09:30:26;;;;;;;30.50;12.85;;;;;;;-0.83;75.67;96158.41;5011995;28;20041;-69
2021/01/04 09:33:02;;;;;;;30.42;14.82;;;;;;;-0.97;74.93;96156.59;5004030;28;20043;-67
2021/01/04 09:35:28;;;;;;;29.95;12.27;;;;;;;-0.85;75.40;96164.09;5015339;28;20141;-66
2021/01/04 09:38:06;;;;;;;22.75;11.10;;;;;;;-0.75;74.57;96162.28;5025284;28;20443;-67
2021/01/04 09:40:32;;;;;;;28.98;12.93;;;;;;;-0.73;74.79;96165.47;5015680;28;20487;-67
2021/01/04 09:43:08;;;;;;;30.95;12.32;;;;;;;-0.69;74.97;96166.44;5017202;28;20046;-66
2021/01/04 09:45:34;;;;;;;31.08;13.68;;;;;;;-0.76;74.48;96164.16;5011435;28;20042;-66
2021/01/04 09:48:05;;;;;;;32.40;13.85;;;;;;;-0.89;75.11;96156.97;5003463;28;20669;-66
2021/01/04 09:50:36;;;;;;;32.63;12.70;;;;;;;-0.85;75.09;96156.03;5000785;28;20132;-66
2021/01/04 09:53:25;;;;;;;28.88;13.85;;;;;;;-0.85;74.04;96158.72;4999053;28;20099;-67
2021/01/04 09:55:58;;;;;;;27.05;13.52;;;;;;;-0.86;74.67;96151.75;4983959;28;20040;-66
2021/01/04 09:58:23;;;;;;;30.45;13.63;;;;;;;-0.90;75.36;96149.97;5005767;28;20045;-66
2021/01/04 10:00:49;;;;;;;32.08;14.88;;;;;;;-0.83;75.51;96153.84;5009213;28;20049;-66
2021/01/04 10:03:18;;;;;;;30.33;14.57;;;;;;;-0.79;75.68;96151.34;4999125;28;20399;-66
2021/01/04 10:05:45;;;;;;;;;;;;;;;-0.81;75.35;96143.59;5012250;28;20072;-66
2021/01/04 10:08:15;;;;;;;27.38;13.15;;;;;;;-0.82;75.54;96150.03;4984589;28;19917;-66
2021/01/04 10:11:01;;;;;;;30.67;13.90;;;;;;;-0.74;75.20;96137.75;5011252;28;20049;-66
2021/01/04 10:13:29;;;;;;;29.73;13.60;;;;;;;-0.89;74.93;96138.94;5001464;28;20050;-66
2021/01/04 10:15:57;;;;;;;30.35;14.77;;;;;;;-0.89;74.83;96148.91;4996396;28;20044;-66
2021/01/04 10:18:41;;;;;;;29.88;14.23;;;;;;;-0.84;74.70;96133.44;5013769;28;20530;-66
2021/01/04 10:21:12;;;;;;;33.90;15.75;;;;;;;-0.83;74.96;96135.03;5022141;28;20046;-67
2021/01/04 10:23:43;;;;;;;37.22;15.38;;;;;;;-0.78;75.28;96120.66;5027285;28;20057;-66
2021/01/04 10:26:11;;;;;;;27.85;14.13;;;;;;;-0.78;74.55;96124.13;5014964;28;20044;-67
2021/01/04 10:28:39;;;;;;;31.70;14.82;;;;;;;-0.76;74.65;96129.19;4998593;28;20041;-66
2021/01/04 10:31:17;;;;;;;31.55;13.40;;;;;;;-0.70;74.57;96122.59;5000895;28;20596;-66
2021/01/04 10:33:42;;;;;;;36.58;15.15;;;;;;;-0.69;74.78;96123.41;5009249;28;20115;-66
2021/01/04 10:36:19;;;;;;;32.13;15.63;;;;;;;-0.72;74.50;96113.25;4992971;28;20128;-67
2021/01/04 10:39:17;;;;;;;30.08;13.48;;;;;;;-0.63;74.10;96116.78;5001217;28;20042;-66
2021/01/04 10:41:42;;;;;;;32.33;13.40;;;;;;;-0.78;75.03;96113.38;4977221;28;20434;-67
2021/01/04 10:44:13;;;;;;;35.38;12.73;;;;;;;-0.69;74.73;96109.94;4997551;28;20036;-67
2021/01/04 10:47:21;;;;;;;32.80;13.55;;;;;;;-0.64;75.45;96107.91;5010050;28;20058;-66
2021/01/04 10:49:47;;;;;;;32.40;14.57;;;;;;;-0.48;75.77;96113.69;5034436;28;20045;-66
2021/01/04 10:52:23;;;;;;;32.42;14.38;;;;;;;-0.55;74.94;96099.09;5015196;28;20404;-66
2021/01/04 10:54:49;;;;;;;32.33;13.48;;;;;;;-0.54;75.26;96101.50;5020106;28;20048;-66
2021/01/04 10:57:35;;;;;;;29.50;14.15;;;;;;;-0.60;75.42;96105.41;5014389;28;20041;-66
2021/01/04 11:00:14;;;;;;;28.77;14.15;;;;;;;-0.62;75.37;96096.84;5011222;28;20509;-65
2021/01/04 11:02:45;;;;;;;32.28;15.13;;;;;;;-0.61;74.94;96093.06;5012039;28;20498;-65
2021/01/04 11:05:14;;;;;;;30.13;14.25;;;;;;;-0.75;75.36;96087.00;5010125;28;20051;-68
2021/01/04 11:07:40;;;;;;;29.60;14.80;;;;;;;-0.68;75.65;96084.66;5003059;28;20050;-68
2021/01/04 11:10:24;;;;;;;28.48;12.13;;;;;;;-0.51;74.66;96081.25;5003388;28;20111;-66
2021/01/04 11:12:52;;;;;;;30.70;14.15;;;;;;;-0.64;74.33;96086.41;4999609;28;20045;-66
2021/01/04 11:15:36;;;;;;;25.27;12.02;;;;;;;-0.44;73.74;96073.50;4999358;28;20465;-66
2021/01/04 11:18:12;;;;;;;27.05;12.32;;;;;;;-0.25;74.93;96076.75;5001825;28;20380;-66
2021/01/04 11:20:41;;;;;;;27.13;12.05;;;;;;;0.06;74.26;96078.56;5006069;28;20037;-67
2021/01/04 11:23:08;;;;;;;26.10;11.37;;;;;;;0.31;73.24;96071.63;5006424;28;20053;-66
2021/01/04 11:25:35;;;;;;;27.00;13.15;;;;;;;0.02;72.34;96074.13;5001138;28;20069;-66
2021/01/04 11:28:02;;;;;;;24.95;12.30;;;;;;;-0.13;72.48;96067.28;5020832;28;20077;-66
2021/01/04 11:30:29;;;;;;;30.65;13.55;;;;;;;0.09;72.21;96063.69;4976220;28;20245;-66
2021/01/04 11:32:59;;;;;;;28.20;13.65;;;;;;;0.42;72.24;96064.03;5010849;28;20049;-66
2021/01/04 11:35:25;;;;;;;;;;;;;;;-0.66;73.33;96045.56;5003309;28;20669;-66
2021/01/04 11:37:51;;;;;;;27.50;14.02;;;;;;;-0.79;74.35;96054.53;5012824;28;19917;-65
2021/01/04 11:40:17;;;;;;;26.20;13.45;;;;;;;-0.59;73.98;96054.00;5002636;28;20136;-67
2021/01/04 11:42:43;;;;;;;26.65;12.95;;;;;;;-0.51;72.39;96057.03;5010124;28;20477;-66
2021/01/04 11:45:11;;;;;;;29.75;14.57;;;;;;;-0.60;73.24;96054.28;4981417;28;20046;-66
2021/01/04 11:47:37;;;;;;;22.92;10.75;;;;;;;-0.37;73.81;96059.63;5008485;28;20550;-66
2021/01/04 11:50:05;;;;;;;26.20;12.77;;;;;;;-0.39;73.51;96052.63;5007425;28;20132;-68
2021/01/04 11:52:33;;;;;;;29.83;12.40;;;;;;;-0.45;75.06;96053.91;4997794;28;20092;-66
2021/01/04 11:54:58;;;;;;;23.48;11.45;;;;;;;-0.38;73.17;96058.81;4981867;28;20125;-66
2021/01/04 11:57:23;;;;;;;25.77;11.98;;;;;;;-0.55;73.57;96051.47;4994177;28;20560;-66
2021/01/04 11:59:49;;;;;;;26.75;13.07;;;;;;;-0.64;74.47;96048.75;5007279;28;20141;-67